Huvudsida
METAR-TAF:

METAR-TAF

Flygplatser :

Pohnpei International Airport

Pohnpei, Mikronesien

latitud: 06-59N, longitud: 158-12E, höjd: 2 m

Aktuellt väderrapport

Denna rapport gjordes för 47 minuter sedan, klockan 02:57 UTC
Vind 5 kt från nordost
Temperatur 31°C
Fuktighet 75%
Tryck 1008 hPa
Sikt: 24.1 km
Brutna moln på en höjd av 1700 ft, Högtornande cumulus.
Mulet på en höjd av 30000 ft

METAR: PTPN 040257Z 05005KT 15SM BKN017TCU OVC300 31/26 A2977 RMK TCU NE-S

Tid: 14:44 (03:44 UTC)

Väderprognos

Denna rapport gjordes för 4 timmar och 24 minuter sedan, klockan 23:20 UTC
Prognos gäller från 04 kl. 00 UTC till 04 kl. 24 UTC
Vind 6 kt från nord
Sikt: 10 km
Brutna moln på en höjd av 1700 ft
Brutna moln på en höjd av 4000 ft
skurar i närheten
Temporärt
från 04 kl. 04 UTC till 04 kl. 08 UTC
Sikt: 6.4 km
Brutna moln på en höjd av 1600 ft
Mulet på en höjd av 3000 ft
regnskurar

TAF: PTPN 032320Z 0400/0424 36006KT P6SM VCSH BKN017 BKN040 TEMPO 0404/0408 4SM SHRA BKN016 OVC030

Aktuella väderrapporter och prognoser från 4000 flygplatser (METAR- och TAF-rapporter).

De tillgängliga stationerna syns som gula och röda prickar på kartan.

För musen över prickarna för att se namnen på stationerna.

Klicka sedan för att få väderrapporter och prognoser.

För att ändra kartan: Klicka på de gröna knapparna med ett svart kors på för att zooma in; den gröna knappen med ett streck på för att zooma ut; eller på de gröna pilarna för angränsande kartor.


METAR-TAF: